createdAt,value
2023-03-03T00:00:02.439Z,90.45
2023-03-03T00:00:13.300Z,90.45
2023-03-03T00:00:25.707Z,90.45
2023-03-03T00:00:36.489Z,90.45
2023-03-03T00:00:49.690Z,90.45
2023-03-03T00:01:01.447Z,90.45
2023-03-03T00:01:13.238Z,90.45
2023-03-03T00:01:23.999Z,90.45
2023-03-03T00:01:34.792Z,90.45
2023-03-03T00:01:45.537Z,90.45
2023-03-03T00:01:56.378Z,90.45
2023-03-03T00:02:08.822Z,90.45
2023-03-03T00:02:20.691Z,90.45
2023-03-03T00:02:31.531Z,90.45
2023-03-03T00:02:43.276Z,90.56
2023-03-03T00:02:55.039Z,90.56
2023-03-03T00:03:05.822Z,90.56
2023-03-03T00:03:16.643Z,90.56
2023-03-03T00:03:27.520Z,90.56
2023-03-03T00:03:38.381Z,90.56
2023-03-03T00:03:49.155Z,90.56
2023-03-03T00:04:01.616Z,90.56
2023-03-03T00:04:12.363Z,90.56
2023-03-03T00:04:23.161Z,90.56
2023-03-03T00:04:33.870Z,90.56
2023-03-03T00:04:44.661Z,90.56
2023-03-03T00:04:57.353Z,90.56
2023-03-03T00:05:08.117Z,90.56
2023-03-03T00:05:19.812Z,90.56
2023-03-03T00:05:30.539Z,90.56
2023-03-03T00:05:41.346Z,90.56
2023-03-03T00:05:53.063Z,90.56
2023-03-03T00:06:04.795Z,90.56
2023-03-03T00:06:15.565Z,90.66
2023-03-03T00:06:26.291Z,90.66
2023-03-03T00:06:37.071Z,90.66
2023-03-03T00:06:47.811Z,90.66
2023-03-03T00:06:58.582Z,90.66
2023-03-03T00:07:10.319Z,90.66
2023-03-03T00:07:21.092Z,90.66
2023-03-03T00:07:31.892Z,90.66
2023-03-03T00:07:42.699Z,90.66
2023-03-03T00:07:53.429Z,90.66
2023-03-03T00:08:05.200Z,90.66
2023-03-03T00:08:15.938Z,90.66
2023-03-03T00:08:26.717Z,90.77
2023-03-03T00:08:38.475Z,90.77
2023-03-03T00:08:49.211Z,90.77
2023-03-03T00:09:00.909Z,90.77
2023-03-03T00:09:11.641Z,90.77
2023-03-03T00:09:25.345Z,90.77
2023-03-03T00:09:37.770Z,90.72
2023-03-03T00:09:48.539Z,90.77
2023-03-03T00:09:59.300Z,90.77
2023-03-03T00:10:11.019Z,90.77
2023-03-03T00:10:23.281Z,90.77
2023-03-03T00:10:35.006Z,90.72
2023-03-03T00:10:45.759Z,90.72
2023-03-03T00:10:57.491Z,90.72
2023-03-03T00:11:08.248Z,90.72
2023-03-03T00:11:21.449Z,90.77
2023-03-03T00:11:32.199Z,90.77
2023-03-03T00:11:42.939Z,90.77
2023-03-03T00:11:54.654Z,90.77
2023-03-03T00:12:05.409Z,90.77
2023-03-03T00:12:17.870Z,90.72
2023-03-03T00:12:30.499Z,90.77
2023-03-03T00:12:41.287Z,90.77
2023-03-03T00:12:52.049Z,90.77
2023-03-03T00:13:03.749Z,90.77
2023-03-03T00:13:14.527Z,90.77
2023-03-03T00:13:25.290Z,90.72
2023-03-03T00:13:36.011Z,90.77
2023-03-03T00:13:46.754Z,90.77
2023-03-03T00:13:57.490Z,90.77
2023-03-03T00:14:08.254Z,90.77
2023-03-03T00:14:18.988Z,90.77
2023-03-03T00:14:30.719Z,90.77
2023-03-03T00:14:41.449Z,90.72
2023-03-03T00:14:52.190Z,90.77
2023-03-03T00:15:04.908Z,90.77
2023-03-03T00:15:16.660Z,90.77
2023-03-03T00:15:28.419Z,90.87
2023-03-03T00:15:40.882Z,90.87
2023-03-03T00:15:51.697Z,90.87
2023-03-03T00:16:02.545Z,90.87
2023-03-03T00:16:13.317Z,90.87
2023-03-03T00:16:26.399Z,90.87
2023-03-03T00:16:38.621Z,90.87
2023-03-03T00:16:52.218Z,90.87
2023-03-03T00:17:03.950Z,90.87
2023-03-03T00:17:14.724Z,90.87
2023-03-03T00:17:26.466Z,90.87
2023-03-03T00:17:37.200Z,90.87
2023-03-03T00:17:47.930Z,90.87
2023-03-03T00:18:00.365Z,90.87
2023-03-03T00:18:12.121Z,90.87
2023-03-03T00:18:22.873Z,90.87
2023-03-03T00:18:34.609Z,90.87
2023-03-03T00:18:45.345Z,90.87
2023-03-03T00:18:56.101Z,90.87
2023-03-03T00:19:06.881Z,90.87
2023-03-03T00:19:17.648Z,90.87
2023-03-03T00:19:28.371Z,90.87
2023-03-03T00:19:39.114Z,90.87
2023-03-03T00:19:49.849Z,90.87
2023-03-03T00:20:02.087Z,90.87
2023-03-03T00:20:14.815Z,90.87
2023-03-03T00:20:25.831Z,90.87
2023-03-03T00:20:38.281Z,90.87
2023-03-03T00:20:49.996Z,90.87
2023-03-03T00:21:01.754Z,90.87
2023-03-03T00:21:14.191Z,90.87
2023-03-03T00:21:24.951Z,90.97
2023-03-03T00:21:35.720Z,90.97
2023-03-03T00:21:48.870Z,90.97
2023-03-03T00:21:59.611Z,90.93
2023-03-03T00:22:10.383Z,90.93
2023-03-03T00:22:22.082Z,90.97
2023-03-03T00:22:32.860Z,90.97
2023-03-03T00:22:43.607Z,90.93
2023-03-03T00:22:54.341Z,90.93
2023-03-03T00:23:06.790Z,90.93
2023-03-03T00:23:17.533Z,90.93
2023-03-03T00:23:28.283Z,90.93
2023-03-03T00:23:39.981Z,90.93
2023-03-03T00:23:51.000Z,90.93
2023-03-03T00:24:01.811Z,90.93
2023-03-03T00:24:12.563Z,90.93
2023-03-03T00:24:23.322Z,90.93
2023-03-03T00:24:34.110Z,90.93
2023-03-03T00:24:44.901Z,90.93
2023-03-03T00:24:56.512Z,90.83
2023-03-03T00:25:07.273Z,90.83
2023-03-03T00:25:18.001Z,90.83
2023-03-03T00:25:30.489Z,90.83
2023-03-03T00:25:41.333Z,90.72
2023-03-03T00:25:53.055Z,90.72
2023-03-03T00:26:03.820Z,90.72
2023-03-03T00:26:15.556Z,90.72
2023-03-03T00:26:26.281Z,90.72
2023-03-03T00:26:37.021Z,90.72
2023-03-03T00:26:49.340Z,90.72
2023-03-03T00:27:00.091Z,90.72
2023-03-03T00:27:12.521Z,90.72
2023-03-03T00:27:24.311Z,90.72
2023-03-03T00:27:36.740Z,90.72
2023-03-03T00:27:47.481Z,90.72
2023-03-03T00:27:58.271Z,90.72
2023-03-03T00:28:09.983Z,90.72
2023-03-03T00:28:20.711Z,90.72
2023-03-03T00:28:31.562Z,90.72
2023-03-03T00:28:44.041Z,90.72
2023-03-03T00:28:57.026Z,90.62
2023-03-03T00:29:07.784Z,90.62
2023-03-03T00:29:20.001Z,90.62
2023-03-03T00:29:32.430Z,90.62
2023-03-03T00:29:43.192Z,90.62
2023-03-03T00:29:53.962Z,90.62
2023-03-03T00:30:04.730Z,90.62
2023-03-03T00:30:15.496Z,90.52
2023-03-03T00:30:27.195Z,90.52
2023-03-03T00:30:37.949Z,90.52
2023-03-03T00:30:50.212Z,90.52
2023-03-03T00:31:02.035Z,90.52
2023-03-03T00:31:14.623Z,90.41
2023-03-03T00:31:25.383Z,90.41
2023-03-03T00:31:37.093Z,90.52
2023-03-03T00:31:47.875Z,90.52
2023-03-03T00:32:00.919Z,90.52
2023-03-03T00:32:11.677Z,90.52
2023-03-03T00:32:24.273Z,90.52
2023-03-03T00:32:35.043Z,90.41
2023-03-03T00:32:45.814Z,90.41
2023-03-03T00:32:56.593Z,90.41
2023-03-03T00:33:07.333Z,90.41
2023-03-03T00:33:19.037Z,90.41
2023-03-03T00:33:29.769Z,90.41
2023-03-03T00:33:40.563Z,90.41
2023-03-03T00:33:51.323Z,90.41
2023-03-03T00:34:02.070Z,90.41
2023-03-03T00:34:12.846Z,90.31
2023-03-03T00:34:24.592Z,90.31
2023-03-03T00:34:35.322Z,90.31
2023-03-03T00:34:47.753Z,90.31
2023-03-03T00:34:59.462Z,90.31
2023-03-03T00:35:11.874Z,90.31
2023-03-03T00:35:22.608Z,90.31
2023-03-03T00:35:33.362Z,90.31
2023-03-03T00:35:44.123Z,90.31
2023-03-03T00:35:55.901Z,90.31
2023-03-03T00:36:06.671Z,90.34
2023-03-03T00:36:19.873Z,90.31
2023-03-03T00:36:30.598Z,90.31
2023-03-03T00:36:41.323Z,90.31
2023-03-03T00:36:52.056Z,90.31
2023-03-03T00:37:05.773Z,90.34
2023-03-03T00:37:18.285Z,90.34
2023-03-03T00:37:29.052Z,90.34
2023-03-03T00:37:39.855Z,90.34
2023-03-03T00:37:50.650Z,90.31
2023-03-03T00:38:01.403Z,90.34
2023-03-03T00:38:12.139Z,90.34
2023-03-03T00:38:24.060Z,90.34
2023-03-03T00:38:36.487Z,90.34
2023-03-03T00:38:47.288Z,90.34
2023-03-03T00:38:59.369Z,90.34
2023-03-03T00:39:10.126Z,90.34
2023-03-03T00:39:21.893Z,90.34
2023-03-03T00:39:33.596Z,90.34
2023-03-03T00:39:46.027Z,90.24
2023-03-03T00:39:58.254Z,90.24
2023-03-03T00:40:08.976Z,90.24
2023-03-03T00:40:19.719Z,90.24
2023-03-03T00:40:30.695Z,90.24
2023-03-03T00:40:41.482Z,90.24
2023-03-03T00:40:52.233Z,90.24
2023-03-03T00:41:03.925Z,90.24
2023-03-03T00:41:16.059Z,90.24
2023-03-03T00:41:28.283Z,90.24
2023-03-03T00:41:39.066Z,90.34
2023-03-03T00:41:49.827Z,90.34
2023-03-03T00:42:01.837Z,90.34
2023-03-03T00:42:12.570Z,90.34
2023-03-03T00:42:24.294Z,90.34
2023-03-03T00:42:35.076Z,90.34
2023-03-03T00:42:45.838Z,90.34
2023-03-03T00:42:58.288Z,90.34
2023-03-03T00:43:09.076Z,90.45
2023-03-03T00:43:19.876Z,90.45
2023-03-03T00:43:31.602Z,90.45
2023-03-03T00:43:42.366Z,90.56
2023-03-03T00:43:53.104Z,90.56
2023-03-03T00:44:03.848Z,90.56
2023-03-03T00:44:14.578Z,90.56
2023-03-03T00:44:25.348Z,90.56
2023-03-03T00:44:36.108Z,90.56
2023-03-03T00:44:46.847Z,90.56
2023-03-03T00:44:58.636Z,90.56
2023-03-03T00:45:10.361Z,90.56
2023-03-03T00:45:21.107Z,90.56
2023-03-03T00:45:31.851Z,90.56
2023-03-03T00:45:44.328Z,90.56
2023-03-03T00:45:56.826Z,90.56
2023-03-03T00:46:09.823Z,90.56
2023-03-03T00:46:20.597Z,90.56
2023-03-03T00:46:31.444Z,90.56
2023-03-03T00:46:43.686Z,90.56
2023-03-03T00:46:54.426Z,90.56
2023-03-03T00:47:05.178Z,90.56
2023-03-03T00:47:15.908Z,90.56
2023-03-03T00:47:31.285Z,90.56
2023-03-03T00:47:42.524Z,90.56
2023-03-03T00:47:53.312Z,90.56
2023-03-03T00:48:05.997Z,90.56
2023-03-03T00:48:18.435Z,90.66
2023-03-03T00:48:29.201Z,90.66
2023-03-03T00:48:39.936Z,90.66
2023-03-03T00:48:50.745Z,90.66
2023-03-03T00:49:02.426Z,90.56
2023-03-03T00:49:13.207Z,90.56
2023-03-03T00:49:23.987Z,90.56
2023-03-03T00:49:34.734Z,90.56
2023-03-03T00:49:47.952Z,90.56
2023-03-03T00:50:00.427Z,90.56
2023-03-03T00:50:11.359Z,90.56
2023-03-03T00:50:22.130Z,90.56
2023-03-03T00:50:32.886Z,90.56
2023-03-03T00:50:46.057Z,90.56
2023-03-03T00:50:56.814Z,90.56
2023-03-03T00:51:09.234Z,90.56
2023-03-03T00:51:19.969Z,90.56
2023-03-03T00:51:32.432Z,90.56
2023-03-03T00:51:44.132Z,90.56
2023-03-03T00:51:56.565Z,90.66
2023-03-03T00:52:07.341Z,90.66
2023-03-03T00:52:19.077Z,90.66
2023-03-03T00:52:29.817Z,90.66
2023-03-03T00:52:40.592Z,90.66
2023-03-03T00:52:52.270Z,90.66
2023-03-03T00:53:04.025Z,90.66
2023-03-03T00:53:14.802Z,90.66
2023-03-03T00:53:25.609Z,90.66
2023-03-03T00:53:38.117Z,90.66
2023-03-03T00:53:48.861Z,90.66
2023-03-03T00:54:01.322Z,90.66
2023-03-03T00:54:12.057Z,90.66
2023-03-03T00:54:23.759Z,90.66
2023-03-03T00:54:34.497Z,90.66
2023-03-03T00:54:45.241Z,90.66
2023-03-03T00:54:56.957Z,90.66
2023-03-03T00:55:07.752Z,90.56
2023-03-03T00:55:18.515Z,90.56
2023-03-03T00:55:30.964Z,90.56
2023-03-03T00:55:41.702Z,90.56
2023-03-03T00:55:53.427Z,90.56
2023-03-03T00:56:05.343Z,90.56
2023-03-03T00:56:16.078Z,90.56
2023-03-03T00:56:26.870Z,90.56
2023-03-03T00:56:38.566Z,90.45
2023-03-03T00:56:49.298Z,90.45
2023-03-03T00:57:00.036Z,90.45
2023-03-03T00:57:10.807Z,90.45
2023-03-03T00:57:24.509Z,90.45
2023-03-03T00:57:35.259Z,90.45
2023-03-03T00:57:47.717Z,90.45
2023-03-03T00:57:59.958Z,90.45
2023-03-03T00:58:10.766Z,90.34
2023-03-03T00:58:22.489Z,90.34
2023-03-03T00:58:34.201Z,90.34
2023-03-03T00:58:44.957Z,90.34
2023-03-03T00:58:55.719Z,90.34
2023-03-03T00:59:06.459Z,90.34
2023-03-03T00:59:17.192Z,90.34
2023-03-03T00:59:29.898Z,90.34
2023-03-03T00:59:40.663Z,90.34
2023-03-03T00:59:51.450Z,90.34
2023-03-03T01:00:02.221Z,90.45
2023-03-03T01:00:13.030Z,90.45
2023-03-03T01:00:23.826Z,90.34
2023-03-03T01:00:34.708Z,90.45
2023-03-03T01:00:45.425Z,90.45
2023-03-03T01:00:56.208Z,90.34
2023-03-03T01:01:07.948Z,90.34
2023-03-03T01:01:18.743Z,90.34
2023-03-03T01:01:30.496Z,90.34
2023-03-03T01:01:41.325Z,90.34
2023-03-03T01:01:52.152Z,90.45
2023-03-03T01:02:02.920Z,90.34
2023-03-03T01:02:13.880Z,90.34
2023-03-03T01:02:25.653Z,90.45
2023-03-03T01:02:36.484Z,90.45
2023-03-03T01:02:47.336Z,90.45
2023-03-03T01:02:59.149Z,90.45
2023-03-03T01:03:09.909Z,90.45
2023-03-03T01:03:20.747Z,90.45
2023-03-03T01:03:33.167Z,90.45
2023-03-03T01:03:43.998Z,90.45
2023-03-03T01:03:56.236Z,90.45
2023-03-03T01:04:06.989Z,90.45
2023-03-03T01:04:17.769Z,90.45
2023-03-03T01:04:31.548Z,90.56
2023-03-03T01:04:44.055Z,90.56
2023-03-03T01:04:54.862Z,90.56
2023-03-03T01:05:05.650Z,90.56
2023-03-03T01:05:17.387Z,90.56
2023-03-03T01:05:30.610Z,90.56
2023-03-03T01:05:43.119Z,90.56
2023-03-03T01:05:55.646Z,90.56
2023-03-03T01:06:06.445Z,90.56
2023-03-03T01:06:18.226Z,90.56
2023-03-03T01:06:30.669Z,90.56
2023-03-03T01:06:41.518Z,90.45
2023-03-03T01:06:52.303Z,90.45
2023-03-03T01:07:03.072Z,90.45
2023-03-03T01:07:13.795Z,90.45
2023-03-03T01:07:26.542Z,90.45
2023-03-03T01:07:38.770Z,90.45
2023-03-03T01:07:50.507Z,90.45
2023-03-03T01:08:02.258Z,90.45
2023-03-03T01:08:13.031Z,90.34
2023-03-03T01:08:23.798Z,90.34
2023-03-03T01:08:36.778Z,90.34
2023-03-03T01:08:47.545Z,90.34
2023-03-03T01:08:58.293Z,90.34
2023-03-03T01:09:09.059Z,90.34
2023-03-03T01:09:19.854Z,90.34
2023-03-03T01:09:30.600Z,90.45
2023-03-03T01:09:41.381Z,90.34
2023-03-03T01:09:52.177Z,90.45
2023-03-03T01:10:03.940Z,90.45
2023-03-03T01:10:14.718Z,90.45
2023-03-03T01:10:25.470Z,90.45
2023-03-03T01:10:36.221Z,90.34
2023-03-03T01:10:46.980Z,90.45
2023-03-03T01:10:59.378Z,90.45
2023-03-03T01:11:11.080Z,90.45
2023-03-03T01:11:24.295Z,90.45
2023-03-03T01:11:35.061Z,90.45
2023-03-03T01:11:45.811Z,90.56
2023-03-03T01:11:59.021Z,90.56
2023-03-03T01:12:09.816Z,90.56
2023-03-03T01:12:20.561Z,90.66
2023-03-03T01:12:31.351Z,90.66
2023-03-03T01:12:42.081Z,90.66
2023-03-03T01:12:53.800Z,90.66
2023-03-03T01:13:04.541Z,90.66
2023-03-03T01:13:15.314Z,90.66
2023-03-03T01:13:26.099Z,90.66
2023-03-03T01:13:38.025Z,90.66
2023-03-03T01:13:48.884Z,90.66
2023-03-03T01:13:59.695Z,90.77
2023-03-03T01:14:10.483Z,90.77
2023-03-03T01:14:23.188Z,90.77
2023-03-03T01:14:35.668Z,90.77
2023-03-03T01:14:46.504Z,90.77
2023-03-03T01:14:58.210Z,90.77
2023-03-03T01:15:08.983Z,90.77
2023-03-03T01:15:19.738Z,90.77
2023-03-03T01:15:30.482Z,90.77
2023-03-03T01:15:43.753Z,90.77
2023-03-03T01:15:54.608Z,90.77
2023-03-03T01:16:05.524Z,90.77
2023-03-03T01:16:18.033Z,90.77
2023-03-03T01:16:28.888Z,90.77
2023-03-03T01:16:39.703Z,90.77
2023-03-03T01:16:50.451Z,90.87
2023-03-03T01:17:01.200Z,90.87
2023-03-03T01:17:11.970Z,90.77
2023-03-03T01:17:22.718Z,90.87
2023-03-03T01:17:33.455Z,90.87
2023-03-03T01:17:44.197Z,90.87
2023-03-03T01:17:54.985Z,90.87
2023-03-03T01:18:05.727Z,90.87
2023-03-03T01:18:16.470Z,90.87
2023-03-03T01:18:27.234Z,90.87
2023-03-03T01:18:38.941Z,90.87
2023-03-03T01:18:49.725Z,90.87
2023-03-03T01:19:00.491Z,90.87
2023-03-03T01:19:11.224Z,90.97
2023-03-03T01:19:21.952Z,90.97
2023-03-03T01:19:32.713Z,90.97
2023-03-03T01:19:43.456Z,90.97
2023-03-03T01:19:55.913Z,90.97
2023-03-03T01:20:07.646Z,90.97
2023-03-03T01:20:18.650Z,90.97
2023-03-03T01:20:30.362Z,90.97
2023-03-03T01:20:41.102Z,90.97
2023-03-03T01:20:51.865Z,90.97
2023-03-03T01:21:02.612Z,90.97
2023-03-03T01:21:13.392Z,90.97
2023-03-03T01:21:24.122Z,90.97
2023-03-03T01:21:34.852Z,90.97
2023-03-03T01:21:45.743Z,90.97
2023-03-03T01:21:56.545Z,90.97
2023-03-03T01:22:08.742Z,90.97
2023-03-03T01:22:19.503Z,90.97
2023-03-03T01:22:30.245Z,90.97
2023-03-03T01:22:40.992Z,90.97
2023-03-03T01:22:53.412Z,90.97
2023-03-03T01:23:04.154Z,90.97
2023-03-03T01:23:16.408Z,90.97
2023-03-03T01:23:27.154Z,90.97
2023-03-03T01:23:38.258Z,90.97
2023-03-03T01:23:49.003Z,90.97
2023-03-03T01:23:59.743Z,90.97
2023-03-03T01:24:11.441Z,90.97
2023-03-03T01:24:23.155Z,90.87
2023-03-03T01:24:36.084Z,90.97
2023-03-03T01:24:46.855Z,90.97
2023-03-03T01:25:00.232Z,90.97
2023-03-03T01:25:11.154Z,90.97
2023-03-03T01:25:22.874Z,90.97
2023-03-03T01:25:35.332Z,90.97
2023-03-03T01:25:48.073Z,90.87
2023-03-03T01:26:01.284Z,90.87
2023-03-03T01:26:12.063Z,90.87
2023-03-03T01:26:22.824Z,90.87
2023-03-03T01:26:36.280Z,90.87
2023-03-03T01:26:47.017Z,90.87
2023-03-03T01:27:00.458Z,90.87
2023-03-03T01:27:12.184Z,90.87
2023-03-03T01:27:22.940Z,90.87
2023-03-03T01:27:35.152Z,90.87
2023-03-03T01:27:45.884Z,90.87
2023-03-03T01:27:56.875Z,90.87
2023-03-03T01:28:07.626Z,90.87
2023-03-03T01:28:18.423Z,90.87
2023-03-03T01:28:29.167Z,90.87
2023-03-03T01:28:40.862Z,90.87
2023-03-03T01:28:51.863Z,90.77
2023-03-03T01:29:02.615Z,90.77
2023-03-03T01:29:13.373Z,90.87
2023-03-03T01:29:24.111Z,90.77
2023-03-03T01:29:35.845Z,90.77
2023-03-03T01:29:46.588Z,90.87
2023-03-03T01:29:57.453Z,90.87
2023-03-03T01:30:09.894Z,90.87
2023-03-03T01:30:20.664Z,90.87
2023-03-03T01:30:33.166Z,90.87
2023-03-03T01:30:43.921Z,90.87
2023-03-03T01:30:56.569Z,90.77
2023-03-03T01:31:07.424Z,90.77
2023-03-03T01:31:18.279Z,90.77
2023-03-03T01:31:29.083Z,90.77
2023-03-03T01:31:41.534Z,90.66
2023-03-03T01:31:52.315Z,90.66
2023-03-03T01:32:04.845Z,90.66
2023-03-03T01:32:15.615Z,90.56
2023-03-03T01:32:28.111Z,90.56
2023-03-03T01:32:38.865Z,90.56
2023-03-03T01:32:49.624Z,90.56
2023-03-03T01:33:02.062Z,90.59
2023-03-03T01:33:12.844Z,90.59
2023-03-03T01:33:23.614Z,90.59
2023-03-03T01:33:34.396Z,90.59
2023-03-03T01:33:45.195Z,90.59
2023-03-03T01:33:58.405Z,90.59
2023-03-03T01:34:09.163Z,90.70
2023-03-03T01:34:19.914Z,90.70
2023-03-03T01:34:30.655Z,90.70
2023-03-03T01:34:41.441Z,90.81
2023-03-03T01:34:52.174Z,90.81
2023-03-03T01:35:05.429Z,90.81
2023-03-03T01:35:16.243Z,90.81
2023-03-03T01:35:27.980Z,90.91
2023-03-03T01:35:38.777Z,90.91
2023-03-03T01:35:49.528Z,90.91
2023-03-03T01:36:00.309Z,90.91
2023-03-03T01:36:12.037Z,90.91
2023-03-03T01:36:25.235Z,90.91
2023-03-03T01:36:35.995Z,90.91
2023-03-03T01:36:46.735Z,90.91
2023-03-03T01:36:57.506Z,90.91
2023-03-03T01:37:08.326Z,91.02
2023-03-03T01:37:20.065Z,91.02
2023-03-03T01:37:31.827Z,91.02
2023-03-03T01:37:42.553Z,91.02
2023-03-03T01:37:53.311Z,91.02
2023-03-03T01:38:04.078Z,91.02
2023-03-03T01:38:14.815Z,91.12
2023-03-03T01:38:25.571Z,91.12
2023-03-03T01:38:36.323Z,91.12
2023-03-03T01:38:48.544Z,91.12
2023-03-03T01:38:59.284Z,91.12
2023-03-03T01:39:10.026Z,91.22
2023-03-03T01:39:20.779Z,91.22
2023-03-03T01:39:31.526Z,91.22
2023-03-03T01:39:42.266Z,91.22
2023-03-03T01:39:53.015Z,91.22
2023-03-03T01:40:03.790Z,91.22
2023-03-03T01:40:14.521Z,91.22
2023-03-03T01:40:25.277Z,91.33
2023-03-03T01:40:36.004Z,91.33
2023-03-03T01:40:47.713Z,91.33
2023-03-03T01:40:58.467Z,91.43
2023-03-03T01:41:09.244Z,91.43
2023-03-03T01:41:20.005Z,91.43
2023-03-03T01:41:30.734Z,91.43
2023-03-03T01:41:42.468Z,91.43
2023-03-03T01:41:54.154Z,91.54
2023-03-03T01:42:04.903Z,91.54
2023-03-03T01:42:16.624Z,91.54
2023-03-03T01:42:27.367Z,91.54
2023-03-03T01:42:39.862Z,91.54
2023-03-03T01:42:50.622Z,91.54
2023-03-03T01:43:01.388Z,91.54
2023-03-03T01:43:12.134Z,91.54
2023-03-03T01:43:22.876Z,91.54
2023-03-03T01:43:35.340Z,91.54
2023-03-03T01:43:46.116Z,91.64
2023-03-03T01:43:56.910Z,91.64
2023-03-03T01:44:10.107Z,91.64
2023-03-03T01:44:20.857Z,91.64
2023-03-03T01:44:31.600Z,91.64
2023-03-03T01:44:43.315Z,91.64
2023-03-03T01:44:54.052Z,91.64
2023-03-03T01:45:05.753Z,91.75
2023-03-03T01:45:18.196Z,91.75
2023-03-03T01:45:28.956Z,91.75
2023-03-03T01:45:39.735Z,91.75
2023-03-03T01:45:51.473Z,91.75
2023-03-03T01:46:03.915Z,91.75
2023-03-03T01:46:16.407Z,91.75
2023-03-03T01:46:28.666Z,91.85
2023-03-03T01:46:41.956Z,91.85
2023-03-03T01:46:55.148Z,91.85
2023-03-03T01:47:05.912Z,91.85
2023-03-03T01:47:16.646Z,91.85
2023-03-03T01:47:28.300Z,91.85
2023-03-03T01:47:39.055Z,91.85
2023-03-03T01:47:49.792Z,91.85
2023-03-03T01:48:02.020Z,91.85
2023-03-03T01:48:14.471Z,91.85
2023-03-03T01:48:25.220Z,91.85
2023-03-03T01:48:35.965Z,91.85
2023-03-03T01:48:46.728Z,91.85
2023-03-03T01:48:59.176Z,91.85
2023-03-03T01:49:09.934Z,91.96
2023-03-03T01:49:20.736Z,91.96
2023-03-03T01:49:31.455Z,91.96
2023-03-03T01:49:42.216Z,91.96
2023-03-03T01:49:52.936Z,91.96
2023-03-03T01:50:04.646Z,91.96
2023-03-03T01:50:15.386Z,91.96
2023-03-03T01:50:26.120Z,91.96
2023-03-03T01:50:36.867Z,91.96
2023-03-03T01:50:47.632Z,91.85
2023-03-03T01:50:58.389Z,91.85
2023-03-03T01:51:11.606Z,91.85
2023-03-03T01:51:22.366Z,91.85
2023-03-03T01:51:33.096Z,91.85
2023-03-03T01:51:44.797Z,91.85
2023-03-03T01:51:55.559Z,91.85
2023-03-03T01:52:06.316Z,91.85
2023-03-03T01:52:17.186Z,91.85
2023-03-03T01:52:30.904Z,91.85
2023-03-03T01:52:43.614Z,91.85
2023-03-03T01:52:56.358Z,91.85
2023-03-03T01:53:08.056Z,91.96
2023-03-03T01:53:18.806Z,91.96
2023-03-03T01:53:29.587Z,91.96
2023-03-03T01:53:41.306Z,91.96
2023-03-03T01:53:52.058Z,91.96
2023-03-03T01:54:02.788Z,91.85
2023-03-03T01:54:14.509Z,91.96
2023-03-03T01:54:27.710Z,91.96
2023-03-03T01:54:40.169Z,91.96
2023-03-03T01:54:50.977Z,91.96
2023-03-03T01:55:01.746Z,91.96
2023-03-03T01:55:12.562Z,92.06
2023-03-03T01:55:23.319Z,92.06
2023-03-03T01:55:34.066Z,92.06
2023-03-03T01:55:45.824Z,92.06
2023-03-03T01:55:58.246Z,92.06
2023-03-03T01:56:09.956Z,92.06
2023-03-03T01:56:20.730Z,92.06
2023-03-03T01:56:32.458Z,92.06
2023-03-03T01:56:43.236Z,92.06
2023-03-03T01:56:54.000Z,92.16
2023-03-03T01:57:06.442Z,92.16
2023-03-03T01:57:17.190Z,92.16
2023-03-03T01:57:27.947Z,92.16
2023-03-03T01:57:38.718Z,92.16
2023-03-03T01:57:49.460Z,92.16
2023-03-03T01:58:00.196Z,92.16
2023-03-03T01:58:10.956Z,92.27
2023-03-03T01:58:22.900Z,92.27
2023-03-03T01:58:34.598Z,92.27
2023-03-03T01:58:46.316Z,92.27
2023-03-03T01:58:57.065Z,92.27
2023-03-03T01:59:07.841Z,92.27
2023-03-03T01:59:20.334Z,92.27
2023-03-03T01:59:31.078Z,92.27
2023-03-03T01:59:41.857Z,92.27
2023-03-03T01:59:52.608Z,92.27
2023-03-03T02:00:03.345Z,92.27
2023-03-03T02:00:14.077Z,92.27
2023-03-03T02:00:24.807Z,92.27
2023-03-03T02:00:35.537Z,92.27
2023-03-03T02:00:46.318Z,92.16
2023-03-03T02:00:57.056Z,92.16
2023-03-03T02:01:07.827Z,92.16
2023-03-03T02:01:19.620Z,92.16
2023-03-03T02:01:31.394Z,92.16
2023-03-03T02:01:42.145Z,92.16
2023-03-03T02:01:52.905Z,92.16
2023-03-03T02:02:03.745Z,92.16
2023-03-03T02:02:15.467Z,92.16
2023-03-03T02:02:26.259Z,92.16
2023-03-03T02:02:37.047Z,92.16
2023-03-03T02:02:47.809Z,92.16
2023-03-03T02:03:00.266Z,92.16
2023-03-03T02:03:12.557Z,92.16
2023-03-03T02:03:23.289Z,92.16
2023-03-03T02:03:34.048Z,92.16
2023-03-03T02:03:44.828Z,92.16
2023-03-03T02:03:56.578Z,92.16
2023-03-03T02:04:07.356Z,92.16
2023-03-03T02:04:18.208Z,92.06
2023-03-03T02:04:28.948Z,92.06
2023-03-03T02:04:39.765Z,92.06
2023-03-03T02:04:50.579Z,91.96
2023-03-03T02:05:03.527Z,91.96
2023-03-03T02:05:14.327Z,91.85
2023-03-03T02:05:26.757Z,91.85
2023-03-03T02:05:37.528Z,91.85
2023-03-03T02:05:49.747Z,91.85
2023-03-03T02:06:01.480Z,91.75
2023-03-03T02:06:13.202Z,91.75
2023-03-03T02:06:23.959Z,91.75
2023-03-03T02:06:34.980Z,91.75
2023-03-03T02:06:45.756Z,91.75
2023-03-03T02:06:56.513Z,91.75
2023-03-03T02:07:08.251Z,91.75
2023-03-03T02:07:19.007Z,91.75
2023-03-03T02:07:29.800Z,91.75
2023-03-03T02:07:40.560Z,91.75
2023-03-03T02:07:52.999Z,91.75
2023-03-03T02:08:04.741Z,91.75
2023-03-03T02:08:15.474Z,91.75
2023-03-03T02:08:27.913Z,91.75
2023-03-03T02:08:39.628Z,91.75
2023-03-03T02:08:51.848Z,91.75
2023-03-03T02:09:02.609Z,91.75
2023-03-03T02:09:13.341Z,91.75
2023-03-03T02:09:24.101Z,91.75
2023-03-03T02:09:34.857Z,91.75
2023-03-03T02:09:46.570Z,91.75
2023-03-03T02:09:57.314Z,91.75
2023-03-03T02:10:08.076Z,91.75
2023-03-03T02:10:18.818Z,91.75
2023-03-03T02:10:29.572Z,91.75
2023-03-03T02:10:40.323Z,91.75
2023-03-03T02:10:51.119Z,91.75
2023-03-03T02:11:02.849Z,91.75
2023-03-03T02:11:13.590Z,91.85
2023-03-03T02:11:24.374Z,91.85
2023-03-03T02:11:35.100Z,91.85
2023-03-03T02:11:48.043Z,91.85
2023-03-03T02:11:58.817Z,91.85
2023-03-03T02:12:09.570Z,91.85
2023-03-03T02:12:21.293Z,91.85
2023-03-03T02:12:32.062Z,91.85
2023-03-03T02:12:42.793Z,91.85
2023-03-03T02:12:54.563Z,91.85
2023-03-03T02:13:05.304Z,91.85
2023-03-03T02:13:16.041Z,91.85
2023-03-03T02:13:26.781Z,91.85
2023-03-03T02:13:37.562Z,91.85
2023-03-03T02:13:49.263Z,91.85
2023-03-03T02:14:00.966Z,91.85
2023-03-03T02:14:12.695Z,91.85
2023-03-03T02:14:25.135Z,91.85
2023-03-03T02:14:35.883Z,91.96
2023-03-03T02:14:46.620Z,91.96
2023-03-03T02:14:57.364Z,91.96
2023-03-03T02:15:10.623Z,91.96
2023-03-03T02:15:22.853Z,91.96
2023-03-03T02:15:33.623Z,91.96
2023-03-03T02:15:44.365Z,91.96
2023-03-03T02:15:56.656Z,91.96
2023-03-03T02:16:08.462Z,91.96
2023-03-03T02:16:19.321Z,91.96
2023-03-03T02:16:31.827Z,91.96
2023-03-03T02:16:43.525Z,91.96
2023-03-03T02:16:54.298Z,91.96
2023-03-03T02:17:06.031Z,91.96
2023-03-03T02:17:16.757Z,92.06
2023-03-03T02:17:28.456Z,92.06
2023-03-03T02:17:39.235Z,92.06
2023-03-03T02:17:53.463Z,92.06
2023-03-03T02:18:05.999Z,92.06
2023-03-03T02:18:16.783Z,92.06
2023-03-03T02:18:27.529Z,92.06
2023-03-03T02:18:38.270Z,92.06
2023-03-03T02:18:50.732Z,92.06
2023-03-03T02:19:01.471Z,92.16
2023-03-03T02:19:12.206Z,92.16
2023-03-03T02:19:23.914Z,92.16
2023-03-03T02:19:34.690Z,92.16
2023-03-03T02:19:45.430Z,92.16
2023-03-03T02:19:56.165Z,92.27
2023-03-03T02:20:07.000Z,92.27
2023-03-03T02:20:17.725Z,92.27
2023-03-03T02:20:28.479Z,92.27
2023-03-03T02:20:39.210Z,92.27
2023-03-03T02:20:49.965Z,92.27
2023-03-03T02:21:00.728Z,92.27
2023-03-03T02:21:13.978Z,92.27
2023-03-03T02:21:25.759Z,92.27
2023-03-03T02:21:36.518Z,92.27
2023-03-03T02:21:47.257Z,92.27
2023-03-03T02:21:57.999Z,92.27
2023-03-03T02:22:09.695Z,92.27
2023-03-03T02:22:20.450Z,92.27
2023-03-03T02:22:31.196Z,92.38
2023-03-03T02:22:41.995Z,92.38
2023-03-03T02:22:52.786Z,92.38
2023-03-03T02:23:03.542Z,92.38
2023-03-03T02:23:14.287Z,92.38
2023-03-03T02:23:26.008Z,92.38
2023-03-03T02:23:36.778Z,92.48
2023-03-03T02:23:47.534Z,92.48
2023-03-03T02:23:58.287Z,92.48
2023-03-03T02:24:09.057Z,92.48
2023-03-03T02:24:20.757Z,92.48
2023-03-03T02:24:32.446Z,92.48
2023-03-03T02:24:43.193Z,92.48
2023-03-03T02:24:54.885Z,92.48
2023-03-03T02:25:06.618Z,92.58
2023-03-03T02:25:17.378Z,92.58
2023-03-03T02:25:28.158Z,92.58